Main page
METAR-TAF:

METAR-TAF

Airports :

Exeter, England

Exeter Airport

latitude: 50-44N, longitude: 003-25W, elevation: 30 m

Current weather observation

The report was made 38 minutes ago, at 13:20 UTC
Wind 9 kt from the Southwest
Temperature 19°C
Humidity 83%
Pressure 1014 hPa
Visibility 10 km or more
Few clouds at a height of 1800 ft
Scattered clouds at a height of 2200 ft
showers in vicinity

METAR: EGTE 241320Z 22009KT 9999 VCSH FEW018 SCT022 19/16 Q1014

Time: 14:58 (13:58 UTC)

Forecast

The report was made 2 hours and 59 minutes ago, at 10:59 UTC
Forecast valid from 24 at 12 UTC to 24 at 21 UTC
Wind 6 kt from the West
Visibility 10 km or more
Broken clouds at a height of 1800 ft
Temporary
from 24 at 12 UTC to 24 at 21 UTC
Visibility: 8000 m
Broken clouds at a height of 1400 ft
light rain

TAF: EGTE 241059Z 2412/2421 28006KT 9999 BKN018 TEMPO 2412/2421 8000 -RA BKN014

Weather observations and forecasts of more than 4000 airports (METAR and TAF reports).

The available stations are represented by yellow and red dots on the map.

Hover mouse over dot to see the name of the station.

Then click to see weather observations and forecasts.

To change the map : click on the green buttons with a black cross to zoom in, on the green button with a dash to zoom out, or on the green arrows for adjacent maps.


METAR-TAF: